Time;durP1;ratioP1;P1;durP2;ratioP2;P2;SDS_P1;SDS_P2;PMS_P1;PMS_P2;Temp;Humidity;BMP_temperature;BMP_pressure;BME280_temperature;BME280_humidity;BME280_pressure;Samples;Min_cycle;Max_cycle;Signal;HPM_P1;HPM_P2
2022/03/26 00:00:12;;;;;;;19.40;7.40;;;;;;;6.71;78.60;100276.16;104570;1273;59653;-68
2022/03/26 00:03:10;;;;;;;20.50;8.50;;;;;;;6.74;78.75;100273.52;105177;1273;59664;-69
2022/03/26 00:05:59;;;;;;;18.50;8.30;;;;;;;6.77;78.84;100271.58;104641;1273;74075;-69
2022/03/26 00:08:49;;;;;;;19.10;8.50;;;;;;;6.80;78.87;100278.09;104519;1273;67356;-68
2022/03/26 00:11:42;;;;;;;20.80;6.50;;;;;;;6.83;78.83;100273.70;104841;1273;72769;-68
2022/03/26 00:14:31;;;;;;;21.20;7.80;;;;;;;6.90;79.19;100264.48;104584;1273;59628;-68
2022/03/26 00:17:20;;;;;;;18.20;7.90;;;;;;;6.94;78.71;100270.42;104677;1274;60265;-68
2022/03/26 00:20:10;;;;;;;18.60;7.90;;;;;;;6.99;78.75;100262.72;104654;1273;73243;-68
2022/03/26 00:22:58;;;;;;;18.60;7.70;;;;;;;7.02;78.22;100255.98;104829;1273;69168;-69
2022/03/26 00:25:47;;;;;;;19.30;8.60;;;;;;;7.04;78.35;100255.17;104803;1274;71714;-69
2022/03/26 00:28:39;;;;;;;18.90;7.60;;;;;;;7.03;78.38;100234.05;104691;1274;59666;-68
2022/03/26 00:31:29;;;;;;;19.80;7.80;;;;;;;7.05;78.58;100236.22;104560;1274;59788;-68
2022/03/26 00:34:21;;;;;;;18.80;7.80;;;;;;;7.06;78.30;100222.59;104588;1273;73336;-69
2022/03/26 00:37:09;;;;;;;21.50;9.40;;;;;;;7.05;78.40;100210.65;104528;1273;68320;-68
2022/03/26 00:39:57;;;;;;;21.50;9.70;;;;;;;7.02;78.59;100208.92;104474;1274;73544;-69
2022/03/26 00:42:47;;;;;;;19.10;8.20;;;;;;;6.99;78.28;100211.18;104682;1273;59679;-68
2022/03/26 00:45:36;;;;;;;22.30;9.40;;;;;;;6.95;79.09;100217.45;104866;1274;60629;-69
2022/03/26 00:48:24;;;;;;;20.90;8.90;;;;;;;6.92;79.29;100209.30;104513;1274;73245;-68
2022/03/26 00:51:15;;;;;;;20.00;9.40;;;;;;;6.90;80.04;100198.33;104563;1274;68207;-68
2022/03/26 00:54:03;;;;;;;23.10;8.50;;;;;;;6.89;80.11;100198.22;104809;1273;72814;-68
2022/03/26 00:56:52;;;;;;;21.50;9.40;;;;;;;6.89;80.34;100197.13;102468;1273;1003313;-68
2022/03/26 00:59:41;;;;;;;21.10;9.30;;;;;;;6.89;80.22;100200.50;104524;1273;59562;-70
2022/03/26 01:02:30;;;;;;;17.80;7.30;;;;;;;6.89;80.15;100202.09;104629;1273;73321;-68
2022/03/26 01:05:20;;;;;;;23.00;10.50;;;;;;;6.89;80.41;100207.38;104720;1273;68233;-69
2022/03/26 01:08:09;;;;;;;23.90;10.50;;;;;;;6.89;80.57;100212.52;104979;1273;71494;-69
2022/03/26 01:11:01;;;;;;;23.40;10.00;;;;;;;6.86;80.81;100221.31;104725;1273;59768;-69
2022/03/26 01:13:53;;;;;;;22.60;9.90;;;;;;;6.86;80.64;100225.73;104792;1274;59722;-69
2022/03/26 01:16:42;;;;;;;23.60;9.20;;;;;;;6.84;81.20;100215.45;104757;1274;73200;-69
2022/03/26 01:19:33;;;;;;;23.30;10.50;;;;;;;6.81;81.46;100211.88;104764;1273;67148;-68
2022/03/26 01:22:22;;;;;;;24.40;10.10;;;;;;;6.79;80.95;100216.77;104750;1273;71748;-68
2022/03/26 01:25:11;;;;;;;21.70;9.80;;;;;;;6.76;81.27;100219.95;104773;1273;59672;-69
2022/03/26 01:28:05;;;;;;;20.80;9.10;;;;;;;6.72;82.15;100223.90;104560;1273;59581;-68
2022/03/26 01:30:54;;;;;;;20.70;8.70;;;;;;;6.73;82.47;100224.76;104761;1273;73594;-69
2022/03/26 01:33:47;;;;;;;25.50;9.80;;;;;;;6.72;82.57;100219.33;104514;1273;68179;-68
2022/03/26 01:36:36;;;;;;;23.70;10.90;;;;;;;6.71;82.78;100221.67;104810;1273;71635;-68
2022/03/26 01:39:25;;;;;;;22.90;9.40;;;;;;;6.70;82.97;100217.33;104660;1273;59654;-68
2022/03/26 01:42:14;;;;;;;25.20;10.00;;;;;;;6.69;83.03;100213.16;104690;1273;60347;-68
2022/03/26 01:45:04;;;;;;;25.00;10.30;;;;;;;6.68;82.99;100219.06;104736;1273;72561;-68
2022/03/26 01:47:53;;;;;;;23.40;10.90;;;;;;;6.64;83.62;100216.60;104980;1273;68459;-68
2022/03/26 01:50:42;;;;;;;22.80;10.90;;;;;;;6.63;83.47;100214.54;104690;1273;72922;-68
2022/03/26 01:53:31;;;;;;;22.70;9.70;;;;;;;6.61;83.92;100210.41;104665;1272;59751;-68
2022/03/26 01:56:21;;;;;;;22.00;9.90;;;;;;;6.60;84.11;100209.09;104424;1273;61248;-68
2022/03/26 01:59:11;;;;;;;21.00;9.70;;;;;;;6.58;84.43;100198.84;104962;1273;72446;-68
2022/03/26 02:02:00;;;;;;;21.60;9.00;;;;;;;6.57;84.54;100192.90;104926;1273;66136;-68
2022/03/26 02:04:49;;;;;;;24.30;9.60;;;;;;;6.54;84.84;100197.98;104516;1273;72819;-69
2022/03/26 02:07:45;;;;;;;22.80;9.40;;;;;;;6.51;84.94;100192.50;103842;1273;1003041;-68
2022/03/26 02:10:34;;;;;;;19.50;8.00;;;;;;;6.51;85.53;100185.29;105025;1273;60280;-68
2022/03/26 02:13:22;;;;;;;24.20;9.00;;;;;;;6.50;85.63;100176.71;104445;1273;73189;-68
2022/03/26 02:16:14;;;;;;;19.90;8.30;;;;;;;6.50;85.51;100177.58;104644;1274;67065;-69
2022/03/26 02:19:08;;;;;;;19.80;8.60;;;;;;;6.47;85.52;100178.83;104707;1276;71555;-68
2022/03/26 02:21:56;;;;;;;23.30;8.10;;;;;;;6.45;85.70;100170.11;104796;1273;59794;-69
2022/03/26 02:24:45;;;;;;;21.90;9.10;;;;;;;6.43;85.91;100170.73;104478;1274;61224;-68
2022/03/26 02:27:38;;;;;;;21.70;8.60;;;;;;;6.42;86.07;100174.01;104731;1273;70705;-68
2022/03/26 02:30:27;;;;;;;21.90;9.80;;;;;;;6.41;86.42;100181.61;104609;1273;68240;-68
2022/03/26 02:33:15;;;;;;;22.30;9.10;;;;;;;6.41;86.00;100178.48;104475;1273;73054;-68
2022/03/26 02:36:09;;;;;;;22.80;8.90;;;;;;;6.38;86.22;100172.65;104711;1273;59771;-68
2022/03/26 02:38:57;;;;;;;21.30;9.20;;;;;;;6.37;86.45;100186.64;103899;1273;1003537;-68
2022/03/26 02:41:46;;;;;;;16.80;8.70;;;;;;;6.37;86.58;100189.27;104605;1273;73718;-68
2022/03/26 02:44:34;;;;;;;26.60;9.40;;;;;;;6.37;87.04;100170.77;104845;1273;68612;-68
2022/03/26 02:47:23;;;;;;;20.40;9.80;;;;;;;6.36;87.03;100157.83;104705;1273;71833;-68
2022/03/26 02:50:12;;;;;;;19.60;8.30;;;;;;;6.35;87.01;100151.83;104544;1273;60292;-68
2022/03/26 02:53:01;;;;;;;19.30;8.80;;;;;;;6.36;87.26;100146.16;104469;1273;59998;-68
2022/03/26 02:55:50;;;;;;;16.60;7.20;;;;;;;6.36;86.93;100140.16;104587;1273;73182;-68
2022/03/26 02:58:39;;;;;;;20.00;8.90;;;;;;;6.36;87.27;100138.04;104747;1273;67836;-68
2022/03/26 03:01:28;;;;;;;19.30;8.10;;;;;;;6.36;87.23;100137.17;104614;1274;72831;-68
2022/03/26 03:04:20;;;;;;;18.60;8.10;;;;;;;6.35;86.98;100137.92;104703;1273;59674;-69
2022/03/26 03:07:09;;;;;;;17.40;8.00;;;;;;;6.35;87.60;100140.95;104598;1273;59708;-68
2022/03/26 03:09:58;;;;;;;17.70;7.60;;;;;;;6.34;87.47;100143.98;104665;1273;71195;-69
2022/03/26 03:12:48;;;;;;;18.50;8.70;;;;;;;6.33;87.69;100149.34;104504;1276;68244;-68
2022/03/26 03:15:37;;;;;;;21.90;7.70;;;;;;;6.32;88.04;100154.34;104491;1273;70849;-68
2022/03/26 03:18:26;;;;;;;19.10;8.40;;;;;;;6.30;88.00;100152.31;104581;1273;59756;-68
2022/03/26 03:21:15;;;;;;;17.80;8.10;;;;;;;6.30;88.09;100150.70;104539;1273;59733;-68
2022/03/26 03:24:04;;;;;;;20.60;8.10;;;;;;;6.29;88.25;100141.59;104646;1273;73347;-67
2022/03/26 03:26:55;;;;;;;16.80;7.70;;;;;;;6.30;88.18;100153.39;104833;1273;65612;-67
2022/03/26 03:29:46;;;;;;;19.60;8.20;;;;;;;6.28;88.01;100153.98;104759;1273;73469;-68
2022/03/26 03:32:36;;;;;;;19.40;8.60;;;;;;;6.28;88.49;100151.20;104928;1273;59683;-67
2022/03/26 03:35:25;;;;;;;17.80;7.50;;;;;;;6.30;88.34;100152.87;104460;1273;61098;-68
2022/03/26 03:38:16;;;;;;;16.00;7.80;;;;;;;6.29;88.49;100143.58;104549;1273;70970;-67
2022/03/26 03:41:05;;;;;;;18.00;9.40;;;;;;;6.29;88.66;100152.55;104702;1273;66639;-67
2022/03/26 03:43:54;;;;;;;17.10;8.10;;;;;;;6.28;88.41;100152.23;104470;1273;72887;-68
2022/03/26 03:46:43;;;;;;;19.40;8.20;;;;;;;6.27;88.89;100162.86;104574;1273;59711;-68
2022/03/26 03:49:31;;;;;;;17.90;7.70;;;;;;;6.29;89.13;100153.77;104590;1273;59883;-68
2022/03/26 03:52:20;;;;;;;16.00;7.90;;;;;;;6.32;89.31;100153.24;104980;1273;73299;-68
2022/03/26 03:55:11;;;;;;;20.00;8.70;;;;;;;6.36;89.20;100149.89;104717;1273;67828;-68
2022/03/26 03:58:00;;;;;;;17.80;8.10;;;;;;;6.41;88.99;100158.37;104543;1273;73690;-68
2022/03/26 04:00:49;;;;;;;17.10;7.40;;;;;;;6.45;89.03;100149.52;104711;1273;59666;-69
2022/03/26 04:03:38;;;;;;;18.90;8.30;;;;;;;6.47;88.91;100153.77;104835;1273;59938;-68
2022/03/26 04:06:30;;;;;;;15.20;6.70;;;;;;;6.51;88.90;100144.76;104512;1273;72201;-69
2022/03/26 04:09:18;;;;;;;19.90;8.90;;;;;;;6.53;88.57;100146.40;103776;1273;1003904;-69
2022/03/26 04:12:08;;;;;;;20.80;8.20;;;;;;;6.55;88.61;100152.27;104497;1273;73735;-68
2022/03/26 04:14:57;;;;;;;18.40;8.20;;;;;;;6.56;88.32;100150.23;104547;1273;59792;-68
2022/03/26 04:17:47;;;;;;;15.20;6.50;;;;;;;6.58;88.35;100161.27;104765;1273;59570;-68
2022/03/26 04:20:36;;;;;;;20.80;9.40;;;;;;;6.60;88.36;100165.17;104768;1273;73560;-68
2022/03/26 04:23:28;;;;;;;18.00;8.00;;;;;;;6.61;88.32;100166.52;104693;1273;68155;-68
2022/03/26 04:26:17;;;;;;;17.60;8.30;;;;;;;6.60;88.61;100168.52;104711;1273;70846;-68
2022/03/26 04:29:06;;;;;;;15.60;7.30;;;;;;;6.61;88.76;100161.63;104497;1273;59688;-68
2022/03/26 04:31:55;;;;;;;16.40;7.70;;;;;;;6.60;89.07;100167.83;104763;1273;59686;-68
2022/03/26 04:34:45;;;;;;;20.10;8.50;;;;;;;6.58;89.11;100169.89;104538;1273;72724;-68
2022/03/26 04:37:34;;;;;;;20.30;9.30;;;;;;;6.58;89.03;100175.70;104548;1273;66927;-68
2022/03/26 04:40:24;;;;;;;14.80;7.10;;;;;;;6.57;89.88;100170.64;104487;1273;71889;-68
2022/03/26 04:43:13;;;;;;;18.90;8.40;;;;;;;6.57;89.84;100175.60;104583;1273;59809;-68
2022/03/26 04:46:02;;;;;;;19.00;7.90;;;;;;;6.55;90.14;100189.29;104580;1273;60671;-70
2022/03/26 04:48:51;;;;;;;16.20;7.50;;;;;;;6.52;90.62;100194.38;105672;1273;72060;-69
2022/03/26 04:51:39;;;;;;;21.30;8.80;;;;;;;6.52;90.40;100209.58;104893;1273;68155;-70
2022/03/26 04:54:28;;;;;;;20.70;9.80;;;;;;;6.49;90.71;100210.98;104726;1273;73005;-69
2022/03/26 04:57:18;;;;;;;17.70;7.30;;;;;;;6.47;90.94;100207.20;105093;1273;59698;-70
2022/03/26 05:00:09;;;;;;;18.60;8.50;;;;;;;6.45;90.99;100205.70;105240;1273;59721;-69
2022/03/26 05:02:57;;;;;;;17.50;8.10;;;;;;;6.46;90.94;100196.67;105181;1273;72329;-69
2022/03/26 05:05:46;;;;;;;17.70;8.50;;;;;;;6.45;91.14;100199.35;104877;1273;68435;-70
2022/03/26 05:08:35;;;;;;;18.70;8.40;;;;;;;6.44;91.49;100209.46;104828;1273;71620;-70
2022/03/26 05:11:24;;;;;;;17.10;8.20;;;;;;;6.44;91.12;100220.75;104885;1273;59779;-69
2022/03/26 05:14:16;;;;;;;17.10;8.80;;;;;;;6.45;91.01;100226.84;104985;1273;61076;-70
2022/03/26 05:17:07;;;;;;;19.20;8.40;;;;;;;6.47;91.29;100236.45;104940;1273;73695;-70
2022/03/26 05:19:56;;;;;;;18.50;8.50;;;;;;;6.45;91.20;100236.02;105004;1273;68707;-70
2022/03/26 05:22:48;;;;;;;18.30;8.40;;;;;;;6.44;91.38;100236.77;105143;1273;72504;-69
2022/03/26 05:25:36;;;;;;;18.20;9.30;;;;;;;6.45;91.07;100234.41;104931;1273;59682;-69
2022/03/26 05:28:27;;;;;;;20.70;8.40;;;;;;;6.46;91.50;100237.38;105029;1273;60141;-70
2022/03/26 05:31:16;;;;;;;21.10;9.00;;;;;;;6.47;91.25;100246.33;104857;1273;73117;-70
2022/03/26 05:34:05;;;;;;;20.70;9.10;;;;;;;6.50;91.18;100244.08;104864;1273;66099;-70
2022/03/26 05:36:53;;;;;;;18.40;7.90;;;;;;;6.49;91.17;100241.11;104905;1273;73262;-70
2022/03/26 05:39:42;;;;;;;20.60;8.70;;;;;;;6.50;91.15;100250.22;104845;1273;59769;-70
2022/03/26 05:42:31;;;;;;;19.20;9.00;;;;;;;6.53;91.31;100247.41;104914;1273;59732;-71
2022/03/26 05:45:19;;;;;;;16.50;8.40;;;;;;;6.57;90.57;100248.73;104891;1273;73282;-71
2022/03/26 05:48:10;;;;;;;17.70;8.20;;;;;;;6.66;90.39;100245.42;104675;1273;66864;-69
2022/03/26 05:50:59;;;;;;;15.30;6.50;;;;;;;6.71;89.92;100238.96;104875;1273;73467;-70
2022/03/26 05:53:49;;;;;;;18.00;7.60;;;;;;;6.73;89.59;100245.55;105202;1273;59772;-70
2022/03/26 05:56:40;;;;;;;19.30;7.90;;;;;;;6.73;89.46;100257.52;104863;1273;59757;-69
2022/03/26 05:59:29;;;;;;;18.60;8.20;;;;;;;6.75;89.56;100257.94;104815;1273;72641;-70
2022/03/26 06:02:17;;;;;;;17.20;8.00;;;;;;;6.79;89.25;100260.52;104884;1273;66887;-70
2022/03/26 06:05:09;;;;;;;15.50;7.10;;;;;;;6.82;89.17;100265.98;105070;1273;71630;-70
2022/03/26 06:07:57;;;;;;;16.70;7.40;;;;;;;6.85;89.07;100264.95;104951;1273;59805;-71
2022/03/26 06:10:46;;;;;;;18.30;7.80;;;;;;;6.85;89.01;100270.59;104920;1273;59529;-70
2022/03/26 06:13:34;;;;;;;15.50;6.60;;;;;;;6.83;88.95;100271.92;104963;1273;72686;-70
2022/03/26 06:16:23;;;;;;;17.60;7.50;;;;;;;6.84;88.75;100278.76;105110;1273;66943;-70
2022/03/26 06:19:14;;;;;;;18.50;8.10;;;;;;;6.88;88.34;100282.06;105163;1273;72965;-72
2022/03/26 06:22:02;;;;;;;14.90;6.50;;;;;;;6.93;88.51;100288.10;104883;1273;59668;-71
2022/03/26 06:24:50;;;;;;;19.00;7.60;;;;;;;6.96;88.38;100287.23;104895;1273;59598;-70
2022/03/26 06:27:38;;;;;;;15.60;7.90;;;;;;;7.00;87.98;100289.28;104720;1273;72267;-70
2022/03/26 06:30:27;;;;;;;17.20;6.90;;;;;;;7.03;87.80;100303.59;104682;1273;68421;-70
2022/03/26 06:33:16;;;;;;;16.00;6.30;;;;;;;7.06;87.60;100305.86;104569;1273;73325;-70
2022/03/26 06:36:05;;;;;;;14.60;7.10;;;;;;;7.15;87.14;100301.95;104829;1273;59730;-70
2022/03/26 06:38:54;;;;;;;17.80;7.00;;;;;;;7.22;86.81;100307.55;104741;1273;60768;-69
2022/03/26 06:41:44;;;;;;;20.00;7.10;;;;;;;7.31;86.37;100310.55;105054;1273;73573;-70
2022/03/26 06:44:32;;;;;;;16.30;7.60;;;;;;;7.43;85.87;100318.48;104936;1273;68489;-70
2022/03/26 06:47:21;;;;;;;18.90;8.10;;;;;;;7.73;84.92;100318.25;104857;1273;72799;-70
2022/03/26 06:50:09;;;;;;;17.40;7.30;;;;;;;8.13;83.13;100316.50;104968;1273;59708;-70
2022/03/26 06:52:59;;;;;;;14.90;7.10;;;;;;;8.38;82.08;100317.73;105264;1273;60027;-70
2022/03/26 06:55:48;;;;;;;18.10;7.00;;;;;;;8.67;80.59;100320.81;104960;1273;73157;-70
2022/03/26 06:58:36;;;;;;;15.40;6.20;;;;;;;8.76;79.63;100331.74;104886;1273;67999;-70
2022/03/26 07:01:25;;;;;;;15.20;6.30;;;;;;;8.72;79.16;100335.52;104175;1273;1003583;-70
2022/03/26 07:04:17;;;;;;;17.60;6.40;;;;;;;8.91;78.48;100329.72;104954;1273;59749;-70
2022/03/26 07:07:06;;;;;;;14.60;5.60;;;;;;;9.62;76.03;100332.89;104848;1273;60253;-70
2022/03/26 07:09:54;;;;;;;13.90;5.40;;;;;;;10.45;71.93;100330.00;104975;1273;71975;-72
2022/03/26 07:12:43;;;;;;;11.90;5.70;;;;;;;10.55;69.99;100338.17;105175;1273;68264;-70
2022/03/26 07:15:31;;;;;;;10.90;5.20;;;;;;;11.26;67.55;100330.59;104674;1274;71496;-70
2022/03/26 07:18:22;;;;;;;13.20;5.50;;;;;;;11.86;64.62;100336.65;104914;1273;59820;-71
2022/03/26 07:21:12;;;;;;;13.90;5.20;;;;;;;11.82;64.12;100335.70;104954;1273;60673;-71
2022/03/26 07:24:01;;;;;;;13.20;4.90;;;;;;;12.15;63.43;100340.96;104945;1273;72523;-71
2022/03/26 07:26:50;;;;;;;12.60;5.00;;;;;;;12.27;62.86;100340.16;105125;1273;67959;-71
2022/03/26 07:29:39;;;;;;;13.70;5.30;;;;;;;12.46;61.06;100346.15;104837;1273;72814;-70
2022/03/26 07:32:28;;;;;;;12.20;5.40;;;;;;;12.44;60.33;100345.40;104863;1273;59771;-71
2022/03/26 07:35:16;;;;;;;11.30;4.90;;;;;;;12.78;58.85;100349.77;104851;1273;59778;-71
2022/03/26 07:38:05;;;;;;;11.30;4.80;;;;;;;13.27;57.62;100340.89;104540;1273;73198;-71
2022/03/26 07:40:57;;;;;;;14.20;5.30;;;;;;;13.78;56.15;100345.30;104677;1273;67706;-70
2022/03/26 07:43:45;;;;;;;12.10;5.10;;;;;;;14.54;54.55;100347.41;105413;1273;72983;-71
2022/03/26 07:46:34;;;;;;;13.00;4.70;;;;;;;15.27;51.28;100333.59;104881;1273;59756;-71
2022/03/26 07:49:25;;;;;;;12.40;4.30;;;;;;;15.12;49.93;100339.11;104771;1273;59587;-70
2022/03/26 07:52:14;;;;;;;12.20;5.20;;;;;;;14.66;51.46;100349.68;105107;1272;73527;-71
2022/03/26 07:55:03;;;;;;;12.90;4.40;;;;;;;14.07;52.23;100359.88;104946;1273;66983;-70
2022/03/26 07:57:55;;;;;;;13.00;4.30;;;;;;;14.05;52.62;100361.50;104902;1273;72710;-72
2022/03/26 08:00:44;;;;;;;11.30;4.20;;;;;;;14.63;51.47;100364.13;105266;1273;59685;-70
2022/03/26 08:03:35;;;;;;;9.40;3.80;;;;;;;14.76;49.43;100364.31;104875;1273;59612;-70
2022/03/26 08:06:26;;;;;;;12.10;3.90;;;;;;;15.14;48.74;100362.10;104746;1273;72150;-71
2022/03/26 08:09:15;;;;;;;11.90;4.00;;;;;;;14.96;48.90;100365.27;104954;1273;66266;-70
2022/03/26 08:12:06;;;;;;;10.40;4.20;;;;;;;14.59;49.61;100375.30;104937;1273;72914;-70
2022/03/26 08:14:54;;;;;;;9.50;3.00;;;;;;;14.41;49.91;100380.65;104852;1273;59782;-71
2022/03/26 08:17:43;;;;;;;10.40;3.60;;;;;;;14.17;50.06;100376.55;104619;1273;59767;-71
2022/03/26 08:20:31;;;;;;;10.60;4.20;;;;;;;13.78;50.77;100381.63;105128;1273;73395;-70
2022/03/26 08:23:22;;;;;;;10.70;3.80;;;;;;;14.01;50.76;100384.11;105036;1273;68038;-70
2022/03/26 08:26:22;;;;;;;14.70;4.10;;;;;;;14.30;50.14;100385.39;105081;1273;70965;-71
2022/03/26 08:29:11;;;;;;;12.90;3.70;;;;;;;14.65;48.66;100383.70;104902;1273;59679;-70
2022/03/26 08:32:04;;;;;;;12.20;4.50;;;;;;;14.77;48.99;100384.83;105052;1273;59678;-71
2022/03/26 08:34:53;;;;;;;11.80;3.50;;;;;;;14.92;48.28;100382.55;104917;1273;71960;-71
2022/03/26 08:37:42;;;;;;;10.40;3.50;;;;;;;14.94;47.69;100380.95;104868;1273;68165;-70
2022/03/26 08:40:31;;;;;;;9.80;3.70;;;;;;;14.94;47.41;100388.08;104969;1273;72975;-71
2022/03/26 08:43:19;;;;;;;10.50;3.80;;;;;;;15.55;47.05;100396.10;104905;1273;59736;-71
2022/03/26 08:46:10;;;;;;;12.20;3.40;;;;;;;16.20;43.85;100394.25;104929;1273;60299;-71
2022/03/26 08:48:59;;;;;;;9.90;3.20;;;;;;;16.66;42.58;100399.90;105312;1273;73903;-71
2022/03/26 08:51:48;;;;;;;10.20;3.10;;;;;;;16.69;41.96;100402.23;105410;1273;68409;-70
2022/03/26 08:54:37;;;;;;;8.60;2.60;;;;;;;16.45;41.90;100395.27;104923;1273;73167;-71
2022/03/26 08:57:31;;;;;;;8.20;2.70;;;;;;;17.07;40.67;100394.42;105151;1273;59692;-72
2022/03/26 09:00:23;;;;;;;10.20;3.30;;;;;;;18.49;38.07;100397.17;104979;1273;61114;-70
2022/03/26 09:03:11;;;;;;;9.30;2.80;;;;;;;18.72;37.33;100398.83;104881;1273;348752;-71
2022/03/26 09:06:00;;;;;;;9.60;2.60;;;;;;;18.91;36.27;100393.45;104930;1273;66902;-72
2022/03/26 09:08:50;;;;;;;8.80;2.70;;;;;;;18.99;35.97;100403.41;105059;1273;73144;-72
2022/03/26 09:11:39;;;;;;;9.60;2.50;;;;;;;19.07;35.53;100405.33;105252;1273;59706;-70
2022/03/26 09:14:27;;;;;;;10.30;2.60;;;;;;;18.13;36.71;100414.14;104946;1273;59752;-71
2022/03/26 09:17:16;;;;;;;9.30;2.30;;;;;;;17.28;38.39;100416.23;104790;1273;72090;-70
2022/03/26 09:20:09;;;;;;;9.30;2.30;;;;;;;16.40;39.32;100429.80;104845;1273;68142;-70
2022/03/26 09:22:58;;;;;;;7.00;1.80;;;;;;;15.44;39.16;100435.89;104968;1273;70572;-71
2022/03/26 09:25:46;;;;;;;7.90;2.20;;;;;;;14.75;40.90;100447.69;104894;1273;59707;-70
2022/03/26 09:28:35;;;;;;;7.30;1.80;;;;;;;14.23;41.75;100448.77;104905;1273;59593;-70
2022/03/26 09:31:23;;;;;;;7.90;1.80;;;;;;;13.79;41.68;100455.63;104904;1273;73415;-72
2022/03/26 09:34:13;;;;;;;7.40;1.90;;;;;;;13.23;42.82;100453.81;104909;1273;68306;-70
2022/03/26 09:37:02;;;;;;;7.10;2.30;;;;;;;12.92;44.11;100462.41;104731;1273;72999;-71
2022/03/26 09:39:51;;;;;;;7.20;2.30;;;;;;;12.65;44.04;100465.23;104879;1273;59776;-70
2022/03/26 09:42:40;;;;;;;8.30;1.90;;;;;;;12.58;43.99;100472.21;105129;1273;59680;-70
2022/03/26 09:45:29;;;;;;;9.80;2.00;;;;;;;12.90;43.20;100469.84;104897;1273;72133;-70
2022/03/26 09:48:19;;;;;;;6.50;1.80;;;;;;;12.84;40.69;100480.66;105186;1273;67041;-70
2022/03/26 09:51:09;;;;;;;11.50;2.00;;;;;;;12.53;39.43;100478.73;104998;1273;72485;-70
2022/03/26 09:53:57;;;;;;;6.50;1.60;;;;;;;12.30;39.40;100487.64;104892;1273;59669;-70
2022/03/26 09:56:46;;;;;;;6.60;1.30;;;;;;;12.37;35.41;100492.73;104793;1273;59650;-69
2022/03/26 09:59:35;;;;;;;6.40;1.40;;;;;;;13.21;30.38;100494.27;104924;1273;71999;-71
2022/03/26 10:02:26;;;;;;;7.00;1.30;;;;;;;14.78;28.66;100498.95;104688;1273;65806;-71
2022/03/26 10:05:19;;;;;;;6.90;1.20;;;;;;;16.87;25.92;100499.77;105019;1273;73622;-71
2022/03/26 10:08:16;;;;;;;8.20;1.30;;;;;;;18.59;23.91;100489.30;105236;1273;59626;-71
2022/03/26 10:11:09;;;;;;;6.70;1.30;;;;;;;20.12;21.74;100488.64;104879;1273;59566;-71
2022/03/26 10:13:59;;;;;;;10.70;4.00;;;;;;;21.28;20.13;100482.29;104951;1273;72448;-71
2022/03/26 10:16:51;;;;;;;7.60;1.10;;;;;;;22.37;19.09;100483.50;104959;1273;68499;-71
2022/03/26 10:19:49;;;;;;;5.30;1.10;;;;;;;23.48;17.89;100485.96;105198;1273;71894;-72
2022/03/26 10:22:44;;;;;;;6.60;1.00;;;;;;;24.17;16.94;100488.32;105151;1273;59684;-72
2022/03/26 10:25:33;;;;;;;6.90;1.00;;;;;;;24.87;16.13;100491.78;105291;1273;60385;-71
2022/03/26 10:28:24;;;;;;;5.70;1.10;;;;;;;25.24;14.65;100487.67;105055;1273;73617;-72
2022/03/26 10:34:25;;;;;;;6.10;1.20;;;;;;;25.07;13.79;100498.52;104918;1273;72976;-71
2022/03/26 10:37:18;;;;;;;7.90;1.10;;;;;;;24.74;13.52;100503.98;104915;1273;59765;-72
2022/03/26 10:40:40;;;;;;;5.50;1.00;;;;;;;24.60;13.38;100503.61;104826;1273;60376;-71
2022/03/26 10:43:31;;;;;;;6.40;1.20;;;;;;;24.39;13.18;100512.70;104414;1279;73704;-71
2022/03/26 10:46:23;;;;;;;6.00;1.20;;;;;;;24.32;13.64;100520.85;104345;1279;66698;-71
2022/03/26 10:49:14;;;;;;;6.10;1.00;;;;;;;24.17;13.42;100514.21;104330;1279;71783;-71
2022/03/26 10:52:15;;;;;;;7.10;1.20;;;;;;;24.20;13.50;100519.63;104120;1280;59687;-71
2022/03/26 10:55:13;;;;;;;6.40;1.20;;;;;;;24.51;14.02;100521.97;104794;1279;59957;-71
2022/03/26 10:58:05;;;;;;;7.40;1.30;;;;;;;24.59;13.74;100525.69;104684;1280;72644;-72
2022/03/26 11:00:54;;;;;;;5.70;1.20;;;;;;;24.43;13.77;100534.77;104357;1279;67004;-71
2022/03/26 11:03:43;;;;;;;5.50;1.00;;;;;;;24.22;13.83;100532.33;104167;1279;72662;-71
2022/03/26 11:06:39;;;;;;;7.10;1.00;;;;;;;23.84;13.32;100541.98;104492;1279;59927;-71
2022/03/26 11:09:28;;;;;;;6.90;1.60;;;;;;;23.41;13.61;100548.23;104421;1279;59776;-71
2022/03/26 11:12:18;;;;;;;6.90;1.40;;;;;;;23.47;14.23;100548.42;104398;1279;73903;-71
2022/03/26 11:15:12;;;;;;;14.40;1.60;;;;;;;23.58;14.41;100557.06;104584;1279;68321;-71
2022/03/26 11:18:32;;;;;;;5.30;0.90;;;;;;;23.60;14.76;100556.58;104597;1279;73171;-72
2022/03/26 11:21:53;;;;;;;7.10;1.00;;;;;;;23.25;14.56;100556.05;105709;1273;59661;-71
2022/03/26 11:25:00;;;;;;;6.90;1.70;;;;;;;22.69;15.02;100548.85;105023;1273;59775;-72
2022/03/26 11:28:36;;;;;;;5.60;1.00;;;;;;;22.42;15.45;100545.45;104953;1273;72074;-72
2022/03/26 11:32:18;;;;;;;7.70;1.20;;;;;;;22.16;16.08;100554.77;105135;1273;68026;-72
2022/03/26 11:35:19;;;;;;;8.00;1.00;;;;;;;22.00;16.80;100555.39;104872;1273;73053;-73
2022/03/26 11:38:12;;;;;;;5.50;1.00;;;;;;;21.69;17.26;100558.67;104898;1273;59833;-72
2022/03/26 11:41:05;;;;;;;7.20;1.40;;;;;;;21.05;17.82;100561.48;105032;1273;61279;-71
2022/03/26 11:43:58;;;;;;;5.70;1.10;;;;;;;20.36;18.50;100569.27;104900;1273;73243;-72
2022/03/26 11:53:10;;;;;;;5.90;0.90;;;;;;;19.02;19.24;100578.91;105413;1273;59733;-71
2022/03/26 11:56:03;;;;;;;5.60;1.20;;;;;;;18.81;19.06;100584.22;104965;1273;61910;-71
2022/03/26 11:59:17;;;;;;;5.50;1.00;;;;;;;18.33;19.85;100595.13;104933;1272;73595;-71
2022/03/26 12:02:28;;;;;;;6.20;1.20;;;;;;;18.09;20.57;100594.73;104994;1273;68405;-72
2022/03/26 12:08:39;;;;;;;6.20;1.10;;;;;;;17.49;21.66;100597.40;104905;1273;59771;-72
2022/03/26 12:11:32;;;;;;;8.40;1.20;;;;;;;17.23;21.45;100594.77;104932;1273;60275;-71
2022/03/26 12:14:21;;;;;;;10.70;1.60;;;;;;;16.92;21.85;100595.13;104937;1273;72625;-71
2022/03/26 12:17:09;;;;;;;6.40;1.40;;;;;;;16.68;21.77;100601.21;104942;1273;68604;-72
2022/03/26 12:20:23;;;;;;;5.90;1.00;;;;;;;16.38;22.65;100598.98;104761;1273;73327;-71
2022/03/26 12:23:23;;;;;;;6.90;1.20;;;;;;;16.06;23.14;100603.70;104879;1273;59765;-70
2022/03/26 12:26:16;;;;;;;6.40;1.00;;;;;;;15.22;24.34;100615.54;105053;1273;59785;-70
2022/03/26 12:29:07;;;;;;;5.70;1.20;;;;;;;14.55;25.02;100623.50;104946;1274;72169;-72
2022/03/26 12:31:59;;;;;;;5.90;1.10;;;;;;;13.76;25.77;100628.98;104807;1273;68520;-71
2022/03/26 12:34:52;;;;;;;6.20;1.20;;;;;;;13.11;26.44;100638.45;105136;1273;73813;-69
2022/03/26 12:37:41;;;;;;;7.10;1.80;;;;;;;12.57;27.16;100643.20;104763;1274;59662;-70
2022/03/26 12:40:33;;;;;;;8.50;2.00;;;;;;;12.07;28.00;100647.63;105189;1273;59601;-71
2022/03/26 12:43:23;;;;;;;7.00;1.40;;;;;;;11.74;28.89;100659.31;104681;1273;73060;-70
2022/03/26 12:46:14;;;;;;;8.70;1.60;;;;;;;11.43;28.72;100654.80;105316;1273;68311;-71
2022/03/26 12:49:22;;;;;;;7.50;1.70;;;;;;;11.11;29.98;100660.06;104837;1273;71719;-71
2022/03/26 12:52:10;;;;;;;5.80;1.60;;;;;;;10.77;30.21;100666.85;105210;1273;59766;-70
2022/03/26 12:55:00;;;;;;;5.10;1.20;;;;;;;10.40;30.65;100678.05;104994;1273;59582;-70
2022/03/26 13:01:06;;;;;;;6.80;1.60;;;;;;;10.00;31.53;100683.12;105218;1273;67070;-70
2022/03/26 13:03:55;;;;;;;5.80;1.30;;;;;;;9.94;31.83;100695.61;104862;1274;73469;-70
2022/03/26 13:06:44;;;;;;;6.50;1.50;;;;;;;9.89;31.81;100694.15;104837;1273;59786;-70
2022/03/26 13:09:33;;;;;;;7.20;1.60;;;;;;;9.88;31.70;100702.90;105200;1273;60424;-71
2022/03/26 13:12:29;;;;;;;5.60;1.30;;;;;;;9.76;31.22;100708.27;104934;1274;73363;-70
2022/03/26 13:15:19;;;;;;;5.50;1.20;;;;;;;9.64;31.49;100716.81;104668;1273;68822;-72
2022/03/26 13:18:10;;;;;;;6.50;1.20;;;;;;;9.56;31.83;100726.34;105012;1273;73313;-71
2022/03/26 13:21:05;;;;;;;6.30;1.10;;;;;;;9.59;31.90;100718.92;105069;1273;59582;-71